createdAt,value
2017-04-22T00:00:18.926Z,30.55
2017-04-22T00:01:29.131Z,30.55
2017-04-22T00:02:39.345Z,30.26
2017-04-22T00:03:49.570Z,30.64
2017-04-22T00:04:59.789Z,30.35
2017-04-22T00:06:10.058Z,30.45
2017-04-22T00:07:19.980Z,30.74
2017-04-22T00:08:29.910Z,30.64
2017-04-22T00:09:40.161Z,30.83
2017-04-22T00:10:49.768Z,30.64
2017-04-22T00:11:59.470Z,30.55
2017-04-22T00:13:09.383Z,30.55
2017-04-22T00:14:19.613Z,30.55
2017-04-22T00:15:29.830Z,30.74
2017-04-22T00:16:39.130Z,30.74
2017-04-22T00:17:48.529Z,30.74
2017-04-22T00:18:58.432Z,30.64
2017-04-22T00:20:08.023Z,30.74
2017-04-22T00:21:17.627Z,30.74
2017-04-22T00:22:27.248Z,30.74
2017-04-22T00:23:37.715Z,30.74
2017-04-22T00:24:47.009Z,30.64
2017-04-22T00:25:56.950Z,30.74
2017-04-22T00:27:07.173Z,30.64
2017-04-22T00:28:17.385Z,30.64
2017-04-22T00:29:27.335Z,30.64
2017-04-22T00:30:37.264Z,30.74
2017-04-22T00:31:46.885Z,30.64
2017-04-22T00:32:57.091Z,30.55
2017-04-22T00:34:07.315Z,30.74
2017-04-22T00:35:17.411Z,30.74
2017-04-22T00:36:27.015Z,30.64
2017-04-22T00:37:37.255Z,30.83
2017-04-22T00:38:47.167Z,30.64
2017-04-22T00:39:57.410Z,30.64
2017-04-22T00:41:07.925Z,30.74
2017-04-22T00:42:17.229Z,30.74
2017-04-22T00:43:27.569Z,30.64
2017-04-22T00:44:37.491Z,30.74
2017-04-22T00:45:47.616Z,30.64
2017-04-22T00:46:57.901Z,30.64
2017-04-22T00:48:08.110Z,30.64
2017-04-22T00:49:18.024Z,30.74
2017-04-22T00:50:27.536Z,30.64
2017-04-22T00:51:37.761Z,30.64
2017-04-22T00:52:47.813Z,30.64
2017-04-22T00:53:57.108Z,30.64
2017-04-22T00:55:07.027Z,30.74
2017-04-22T00:56:17.235Z,30.83
2017-04-22T00:57:27.451Z,30.74
2017-04-22T00:58:37.522Z,30.83
2017-04-22T00:59:47.730Z,30.74
2017-04-22T01:00:57.633Z,30.74
2017-04-22T01:02:07.865Z,30.83
2017-04-22T01:03:17.159Z,30.74
2017-04-22T01:04:27.525Z,30.83
2017-04-22T01:05:37.739Z,30.93
2017-04-22T01:06:47.950Z,30.74
2017-04-22T01:07:58.183Z,30.74
2017-04-22T01:09:08.415Z,30.93
2017-04-22T01:10:18.653Z,30.83
2017-04-22T01:11:27.997Z,30.93
2017-04-22T01:12:37.898Z,31.03
2017-04-22T01:13:48.142Z,31.03
2017-04-22T01:14:58.378Z,30.93
2017-04-22T01:16:08.385Z,30.93
2017-04-22T01:17:18.018Z,30.93
2017-04-22T01:18:27.660Z,30.83
2017-04-22T01:19:37.577Z,31.03
2017-04-22T01:20:47.238Z,30.93
2017-04-22T01:21:57.403Z,30.83
2017-04-22T01:23:07.617Z,30.83
2017-04-22T01:24:17.847Z,30.93
2017-04-22T01:25:27.468Z,30.93
2017-04-22T01:26:37.682Z,30.83
2017-04-22T01:27:48.311Z,30.93
2017-04-22T01:28:58.559Z,30.83
2017-04-22T01:30:08.781Z,30.74
2017-04-22T01:31:18.986Z,30.83
2017-04-22T01:32:28.287Z,30.83
2017-04-22T01:33:38.775Z,30.83
2017-04-22T01:34:48.690Z,31.12
2017-04-22T01:35:58.600Z,31.03
2017-04-22T01:37:08.822Z,31.12
2017-04-22T01:38:18.749Z,31.12
2017-04-22T01:39:28.457Z,30.83
2017-04-22T01:40:38.677Z,31.03
2017-04-22T01:41:48.275Z,31.03
2017-04-22T01:42:57.897Z,31.03
2017-04-22T01:44:07.804Z,31.03
2017-04-22T01:45:17.968Z,31.03
2017-04-22T01:46:27.883Z,31.03
2017-04-22T01:47:37.166Z,31.03
2017-04-22T01:48:47.074Z,30.93
2017-04-22T01:49:56.975Z,30.93
2017-04-22T01:51:07.344Z,31.03
2017-04-22T01:52:16.939Z,31.12
2017-04-22T01:53:26.532Z,31.22
2017-04-22T01:54:36.462Z,31.03
2017-04-22T01:55:46.676Z,31.03
2017-04-22T01:56:56.828Z,31.22
2017-04-22T01:58:06.733Z,31.22
2017-04-22T01:59:16.650Z,31.12
2017-04-22T02:00:26.884Z,31.12
2017-04-22T02:01:36.802Z,31.12
2017-04-22T02:02:46.986Z,31.03
2017-04-22T02:03:57.211Z,31.22
2017-04-22T02:05:06.814Z,31.12
2017-04-22T02:06:16.108Z,31.03
2017-04-22T02:07:26.039Z,31.12
2017-04-22T02:08:35.735Z,31.03
2017-04-22T02:09:45.639Z,31.22
2017-04-22T02:10:55.682Z,31.12
2017-04-22T02:12:05.479Z,31.03
2017-04-22T02:13:15.781Z,31.22
2017-04-22T02:14:26.299Z,31.12
2017-04-22T02:15:36.199Z,31.12
2017-04-22T02:16:46.423Z,31.12
2017-04-22T02:17:56.337Z,31.22
2017-04-22T02:19:06.925Z,31.22
2017-04-22T02:20:17.080Z,31.22
2017-04-22T02:21:26.673Z,31.22
2017-04-22T02:22:35.966Z,31.22
2017-04-22T02:23:45.871Z,31.12
2017-04-22T02:24:56.101Z,31.22
2017-04-22T02:26:05.657Z,31.32
2017-04-22T02:27:14.962Z,31.22
2017-04-22T02:28:24.863Z,31.32
2017-04-22T02:29:34.157Z,31.22
2017-04-22T02:30:44.362Z,31.22
2017-04-22T02:31:54.114Z,31.32
2017-04-22T02:33:04.338Z,31.32
2017-04-22T02:34:13.944Z,31.22
2017-04-22T02:35:23.857Z,31.32
2017-04-22T02:36:33.762Z,31.22
2017-04-22T02:37:43.620Z,31.22
2017-04-22T02:38:52.917Z,31.22
2017-04-22T02:40:02.831Z,31.22
2017-04-22T02:41:12.439Z,31.22
2017-04-22T02:42:22.651Z,31.32
2017-04-22T02:43:33.282Z,31.22
2017-04-22T02:44:43.489Z,31.22
2017-04-22T02:45:53.413Z,31.32
2017-04-22T02:47:03.637Z,31.22
2017-04-22T02:48:13.273Z,31.22
2017-04-22T02:49:23.482Z,31.32
2017-04-22T02:50:32.480Z,31.22
2017-04-22T02:51:42.078Z,31.32
2017-04-22T02:52:51.683Z,31.32
2017-04-22T02:54:02.013Z,31.32
2017-04-22T02:55:12.201Z,31.22
2017-04-22T02:56:21.506Z,31.22
2017-04-22T02:57:31.712Z,31.22
2017-04-22T02:58:41.315Z,31.22
2017-04-22T02:59:51.549Z,31.22
2017-04-22T03:01:01.601Z,31.32
2017-04-22T03:02:11.498Z,31.41
2017-04-22T03:03:21.407Z,31.4
2017-04-22T03:04:31.009Z,31.32
2017-04-22T03:05:41.221Z,31.22
2017-04-22T03:06:51.287Z,31.32
2017-04-22T03:08:01.189Z,31.41
2017-04-22T03:09:11.400Z,31.41
2017-04-22T03:10:21.312Z,31.41
2017-04-22T03:11:31.528Z,31.41
2017-04-22T03:12:41.477Z,31.41
2017-04-22T03:13:51.392Z,31.41
2017-04-22T03:15:00.701Z,31.41
2017-04-22T03:16:10.604Z,31.41
2017-04-22T03:17:20.209Z,31.41
2017-04-22T03:18:30.273Z,31.32
2017-04-22T03:19:40.186Z,31.51
2017-04-22T03:20:50.463Z,31.51
2017-04-22T03:22:00.067Z,31.32
2017-04-22T03:23:09.669Z,31.51
2017-04-22T03:24:19.826Z,31.3
2017-04-22T03:25:29.427Z,31.49
2017-04-22T03:26:39.048Z,31.51
2017-04-22T03:27:48.955Z,31.32
2017-04-22T03:28:58.850Z,31.4
2017-04-22T03:30:08.766Z,31.41
2017-04-22T03:31:18.665Z,31.32
2017-04-22T03:32:28.576Z,31.51
2017-04-22T03:33:38.478Z,31.4
2017-04-22T03:34:48.388Z,31.41
2017-04-22T03:35:58.656Z,31.4
2017-04-22T03:37:08.616Z,31.41
2017-04-22T03:38:18.223Z,31.4
2017-04-22T03:39:28.496Z,31.41
2017-04-22T03:40:37.788Z,31.4
2017-04-22T03:41:47.651Z,31.41
2017-04-22T03:42:57.556Z,31.51
2017-04-22T03:44:07.766Z,31.6
2017-04-22T03:45:18.045Z,31.3
2017-04-22T03:46:27.818Z,31.59
2017-04-22T03:47:38.069Z,31.51
2017-04-22T03:48:47.662Z,31.59
2017-04-22T03:49:57.572Z,31.51
2017-04-22T03:51:07.171Z,31.49
2017-04-22T03:52:16.791Z,31.49
2017-04-22T03:53:26.688Z,31.49
2017-04-22T03:54:36.289Z,31.51
2017-04-22T03:55:46.500Z,31.49
2017-04-22T03:56:56.405Z,31.51
2017-04-22T03:58:06.027Z,31.49
2017-04-22T03:59:16.403Z,31.49
2017-04-22T04:00:26.376Z,31.51
2017-04-22T04:01:36.292Z,31.51
2017-04-22T04:02:46.209Z,31.51
2017-04-22T04:03:56.433Z,31.51
2017-04-22T04:05:06.690Z,31.59
2017-04-22T04:06:16.896Z,31.6
2017-04-22T04:07:27.115Z,31.51
2017-04-22T04:08:37.331Z,31.59
2017-04-22T04:09:47.565Z,31.4
2017-04-22T04:10:57.824Z,31.59
2017-04-22T04:12:08.038Z,31.49
2017-04-22T04:13:18.079Z,31.6
2017-04-22T04:14:28.351Z,31.59
2017-04-22T04:15:38.565Z,31.6
2017-04-22T04:16:48.723Z,31.49
2017-04-22T04:17:58.626Z,31.51
2017-04-22T04:19:08.527Z,31.59
2017-04-22T04:20:18.742Z,31.49
2017-04-22T04:21:28.954Z,31.7
2017-04-22T04:22:38.796Z,31.69
2017-04-22T04:23:48.709Z,31.51
2017-04-22T04:24:58.623Z,31.69
2017-04-22T04:26:08.839Z,31.49
2017-04-22T04:27:18.438Z,31.59
2017-04-22T04:28:28.923Z,31.59
2017-04-22T04:29:38.825Z,31.59
2017-04-22T04:30:48.765Z,31.59
2017-04-22T04:31:58.693Z,31.59
2017-04-22T04:33:08.916Z,31.49
2017-04-22T04:34:19.341Z,31.59
2017-04-22T04:35:29.247Z,31.59
2017-04-22T04:36:38.856Z,31.59
2017-04-22T04:37:48.770Z,31.49
2017-04-22T04:38:58.984Z,31.59
2017-04-22T04:40:09.037Z,31.49
2017-04-22T04:41:18.658Z,31.49
2017-04-22T04:42:28.576Z,31.69
2017-04-22T04:43:38.179Z,31.69
2017-04-22T04:44:47.773Z,31.69
2017-04-22T04:45:57.975Z,31.78
2017-04-22T04:47:08.181Z,31.69
2017-04-22T04:48:18.391Z,31.59
2017-04-22T04:49:28.305Z,31.59
2017-04-22T04:50:37.917Z,31.59
2017-04-22T04:51:47.665Z,31.69
2017-04-22T04:52:57.880Z,31.88
2017-04-22T04:54:07.803Z,31.69
2017-04-22T04:55:17.710Z,31.88
2017-04-22T04:56:27.616Z,31.78
2017-04-22T04:57:37.710Z,31.88
2017-04-22T04:58:46.997Z,31.88
2017-04-22T04:59:56.902Z,31.78
2017-04-22T05:01:07.180Z,31.88
2017-04-22T05:02:16.779Z,31.78
2017-04-22T05:03:27.082Z,32.07
2017-04-22T05:04:37.284Z,32.07
2017-04-22T05:05:47.186Z,31.78
2017-04-22T05:06:57.081Z,32.07
2017-04-22T05:08:07.292Z,32.07
2017-04-22T05:09:17.062Z,32.07
2017-04-22T05:10:26.668Z,32.07
2017-04-22T05:11:36.874Z,31.98
2017-04-22T05:12:47.087Z,31.98
2017-04-22T05:13:56.996Z,31.88
2017-04-22T05:15:06.535Z,32.07
2017-04-22T05:16:16.438Z,31.88
2017-04-22T05:17:26.340Z,32.07
2017-04-22T05:18:35.934Z,31.98
2017-04-22T05:19:45.844Z,32.07
2017-04-22T05:20:56.086Z,31.98
2017-04-22T05:22:05.379Z,32.17
2017-04-22T05:23:15.293Z,32.17
2017-04-22T05:24:24.888Z,32.15
2017-04-22T05:25:34.790Z,32.17
2017-04-22T05:26:44.547Z,32.26
2017-04-22T05:27:54.456Z,32.17
2017-04-22T05:29:04.380Z,32.07
2017-04-22T05:30:14.595Z,32.07
2017-04-22T05:33:57.010Z,31.96
2017-04-22T05:35:07.219Z,32.06
2017-04-22T05:36:17.454Z,31.96
2017-04-22T05:37:27.051Z,31.96
2017-04-22T05:38:36.647Z,32.06
2017-04-22T05:39:47.174Z,32.15
2017-04-22T05:40:57.267Z,31.96
2017-04-22T05:42:06.869Z,32.06
2017-04-22T05:43:16.480Z,32.15
2017-04-22T05:44:26.077Z,32.15
2017-04-22T05:45:35.770Z,32.15
2017-04-22T05:46:45.685Z,32.15
2017-04-22T05:47:55.906Z,32.25
2017-04-22T05:49:05.824Z,32.25
2017-04-22T05:50:15.736Z,32.06
2017-04-22T05:51:26.298Z,32.15
2017-04-22T05:52:36.505Z,31.96
2017-04-22T05:53:46.104Z,32.15
2017-04-22T05:54:56.319Z,32.15
2017-04-22T05:56:06.223Z,32.06
2017-04-22T05:57:16.467Z,31.96
2017-04-22T05:58:26.069Z,31.96
2017-04-22T05:59:35.976Z,32.15
2017-04-22T06:00:45.275Z,31.96
2017-04-22T06:01:55.483Z,32.15
2017-04-22T06:03:05.552Z,31.96
2017-04-22T06:04:15.183Z,32.06
2017-04-22T06:05:25.404Z,31.96
2017-04-22T06:06:35.614Z,32.06
2017-04-22T06:07:44.904Z,32.15
2017-04-22T06:08:55.191Z,32.06
2017-04-22T06:10:05.132Z,32.06
2017-04-22T06:11:15.228Z,32.06
2017-04-22T06:12:25.138Z,31.96
2017-04-22T06:13:35.045Z,32.06
2017-04-22T06:14:45.260Z,32.15
2017-04-22T06:15:54.853Z,32.06
2017-04-22T06:17:04.456Z,32.15
2017-04-22T06:18:14.666Z,31.96
2017-04-22T06:19:24.585Z,32.25
2017-04-22T06:20:34.643Z,32.15
2017-04-22T06:21:44.252Z,32.15
2017-04-22T06:22:54.489Z,31.96
2017-04-22T06:24:04.794Z,32.15
2017-04-22T06:25:14.790Z,32.15
2017-04-22T06:26:25.386Z,32.15
2017-04-22T06:27:35.004Z,32.06
2017-04-22T06:28:44.598Z,31.96
2017-04-22T06:29:54.497Z,31.96
2017-04-22T06:31:04.337Z,31.96
2017-04-22T06:32:14.725Z,31.87
2017-04-22T06:33:24.686Z,31.96
2017-04-22T06:34:34.609Z,31.88
2017-04-22T06:35:44.239Z,31.88
2017-04-22T06:36:53.923Z,31.88
2017-04-22T06:38:03.947Z,32.06
2017-04-22T06:39:13.873Z,31.98
2017-04-22T06:40:23.490Z,31.96
2017-04-22T06:41:33.827Z,31.88
2017-04-22T06:42:43.485Z,32.06
2017-04-22T06:43:53.339Z,31.98
2017-04-22T06:45:02.953Z,32.07
2017-04-22T06:46:12.581Z,32.07
2017-04-22T06:47:22.502Z,32.07
2017-04-22T06:48:32.239Z,31.69
2017-04-22T06:49:42.872Z,31.98
2017-04-22T06:50:52.787Z,31.77
2017-04-22T06:52:03.058Z,31.88
2017-04-22T06:53:13.011Z,31.98
2017-04-22T06:54:22.616Z,31.69
2017-04-22T06:55:32.535Z,31.78
2017-04-22T06:56:42.823Z,31.49
2017-04-22T06:57:53.112Z,31.59
2017-04-22T06:59:02.987Z,31.69
2017-04-22T07:00:12.286Z,31.59
2017-04-22T07:01:22.237Z,31.4
2017-04-22T07:02:32.159Z,31.3
2017-04-22T07:03:42.076Z,31.22
2017-04-22T07:04:52.293Z,31.12
2017-04-22T07:06:02.505Z,31.22
2017-04-22T07:07:12.535Z,30.93
2017-04-22T07:08:22.752Z,30.83
2017-04-22T07:09:32.966Z,30.93
2017-04-22T07:10:42.888Z,30.83
2017-04-22T07:11:52.495Z,30.76
2017-04-22T07:13:02.380Z,30.37
2017-04-22T07:14:12.023Z,30.37
2017-04-22T07:15:22.278Z,30.46
2017-04-22T07:16:32.225Z,30.66
2017-04-22T07:17:41.934Z,29.98
2017-04-22T07:18:52.123Z,30.37
2017-04-22T07:20:02.351Z,30.1
2017-04-22T07:21:12.001Z,30.1
2017-04-22T07:22:21.440Z,30.1
2017-04-22T07:23:31.732Z,30.29
2017-04-22T07:24:42.334Z,29.71
2017-04-22T07:25:52.894Z,29.9
2017-04-22T07:27:03.358Z,29.9
2017-04-22T07:28:12.745Z,29.52
2017-04-22T07:29:22.378Z,29.72
2017-04-22T07:30:32.785Z,29.82
2017-04-22T07:31:43.402Z,29.82
2017-04-22T07:32:53.088Z,29.63
2017-04-22T07:34:03.726Z,29.91
2017-04-22T07:35:13.658Z,29.34
2017-04-22T07:36:24.421Z,29.43
2017-04-22T07:37:34.129Z,29.53
2017-04-22T07:38:44.185Z,29.53
2017-04-22T07:39:54.158Z,29.35
2017-04-22T07:41:03.207Z,29.25
2017-04-22T07:42:13.301Z,29.16
2017-04-22T07:43:23.221Z,29.35
2017-04-22T07:44:33.437Z,29.45
2017-04-22T07:45:43.031Z,28.77
2017-04-22T07:46:53.294Z,29.45
2017-04-22T07:48:03.486Z,28.97
2017-04-22T07:49:13.489Z,28.97
2017-04-22T07:50:23.579Z,29.08
2017-04-22T07:51:34.643Z,29.06
2017-04-22T07:52:44.306Z,29.08
2017-04-22T07:53:54.518Z,29.17
2017-04-22T07:55:04.465Z,29.17
2017-04-22T07:56:14.779Z,28.98
2017-04-22T07:57:24.482Z,28.98
2017-04-22T07:58:34.863Z,28.98
2017-04-22T07:59:45.034Z,28.98
2017-04-22T08:00:54.634Z,28.88
2017-04-22T08:02:04.006Z,28.99
2017-04-22T08:03:13.777Z,29.56
2017-04-22T08:04:23.348Z,30.32
2017-04-22T08:05:33.589Z,30.4
2017-04-22T08:06:43.273Z,30.49
2017-04-22T08:07:54.483Z,30.77
2017-04-22T08:09:04.713Z,30.4
2017-04-22T08:10:14.625Z,30.21
2017-04-22T08:11:25.137Z,30.21
2017-04-22T08:12:35.327Z,29.82
2017-04-22T08:13:45.255Z,29.64
2017-04-22T08:14:54.662Z,29.35
2017-04-22T08:16:04.356Z,29.35
2017-04-22T08:17:14.313Z,29.36
2017-04-22T08:18:23.906Z,29.08
2017-04-22T08:19:34.160Z,29.08
2017-04-22T08:20:44.061Z,29.08
2017-04-22T08:21:54.268Z,28.8
2017-04-22T08:23:04.328Z,28.61
2017-04-22T08:24:14.551Z,28.8
2017-04-22T08:25:24.161Z,28.7
2017-04-22T08:26:33.769Z,28.8
2017-04-22T08:27:43.976Z,28.52
2017-04-22T08:28:53.373Z,28.52
2017-04-22T08:30:03.586Z,28.43
2017-04-22T08:31:13.194Z,28.43
2017-04-22T08:32:23.420Z,28.43
2017-04-22T08:33:33.661Z,28.43
2017-04-22T08:34:44.247Z,28.43
2017-04-22T08:35:54.472Z,28.62
2017-04-22T08:37:04.075Z,28.52
2017-04-22T08:38:13.679Z,28.62
2017-04-22T08:39:23.280Z,28.72
2017-04-22T08:40:33.347Z,28.72
2017-04-22T08:41:42.956Z,28.81
2017-04-22T08:42:52.860Z,28.72
2017-04-22T08:44:03.087Z,28.62
2017-04-22T08:45:13.314Z,29.01
2017-04-22T08:46:23.529Z,28.91
2017-04-22T08:47:33.767Z,29.1
2017-04-22T08:48:43.995Z,29.01
2017-04-22T08:49:54.226Z,29.1
2017-04-22T08:51:03.841Z,29.2
2017-04-22T08:52:13.705Z,29.1
2017-04-22T08:53:23.321Z,29.1
2017-04-22T08:54:33.235Z,29.01
2017-04-22T08:55:42.836Z,29.3
2017-04-22T08:56:52.760Z,29.2
2017-04-22T08:58:03.127Z,29.3
2017-04-22T08:59:13.353Z,29.1
2017-04-22T09:00:22.654Z,29.49
2017-04-22T09:01:33.303Z,29.49
2017-04-22T09:02:43.524Z,29.39
2017-04-22T09:03:53.590Z,29.57
2017-04-22T09:05:03.812Z,29.96
2017-04-22T09:06:14.034Z,29.77
2017-04-22T09:07:23.347Z,29.47
2017-04-22T09:08:34.190Z,29.96
2017-04-22T09:09:45.008Z,30.05
2017-04-22T09:10:55.756Z,30.44
2017-04-22T09:12:05.371Z,30.25
2017-04-22T09:13:14.985Z,30.25
2017-04-22T09:14:24.906Z,30.25
2017-04-22T09:15:35.056Z,30.04
2017-04-22T09:16:44.980Z,30.52
2017-04-22T09:17:54.894Z,30.62
2017-04-22T09:19:05.483Z,30.52
2017-04-22T09:20:15.084Z,30.44
2017-04-22T09:21:25.143Z,30.43
2017-04-22T09:22:35.059Z,30.63
2017-04-22T09:23:44.670Z,30.52
2017-04-22T09:24:54.892Z,30.62
2017-04-22T09:26:04.498Z,30.72
2017-04-22T09:27:14.857Z,30.82
2017-04-22T09:28:24.771Z,30.82
2017-04-22T09:29:34.707Z,30.82
2017-04-22T09:30:44.988Z,30.82
2017-04-22T09:31:54.940Z,30.82
2017-04-22T09:33:04.363Z,30.72
2017-04-22T09:34:14.430Z,30.82
2017-04-22T09:35:24.670Z,30.62
2017-04-22T09:36:34.633Z,30.82
2017-04-22T09:37:44.549Z,30.91
2017-04-22T09:38:54.616Z,30.91
2017-04-22T09:40:04.520Z,30.82
2017-04-22T09:41:13.505Z,30.91
2017-04-22T09:42:23.117Z,30.91
2017-04-22T09:43:33.014Z,31.01
2017-04-22T09:44:43.827Z,31.2
2017-04-22T09:45:54.166Z,31.1
2017-04-22T09:47:04.224Z,31.3
2017-04-22T09:48:13.772Z,31.2
2017-04-22T09:49:23.142Z,31.4
2017-04-22T09:50:33.230Z,31.59
2017-04-22T09:51:43.464Z,31.49
2017-04-22T09:52:53.362Z,31.59
2017-04-22T09:54:03.593Z,31.48
2017-04-22T09:55:13.513Z,31.57
2017-04-22T09:56:23.983Z,31.67
2017-04-22T09:57:34.218Z,31.57
2017-04-22T09:58:44.141Z,31.86
2017-04-22T09:59:54.109Z,31.67
2017-04-22T10:01:04.362Z,31.86
2017-04-22T10:02:14.125Z,31.96
2017-04-22T10:03:23.735Z,31.96
2017-04-22T10:04:34.038Z,31.96
2017-04-22T10:05:43.650Z,31.96
2017-04-22T10:06:53.605Z,32.06
2017-04-22T10:08:03.814Z,32.06
2017-04-22T10:09:13.445Z,31.96
2017-04-22T10:10:23.704Z,32.06
2017-04-22T10:11:33.922Z,31.96
2017-04-22T10:12:44.523Z,31.96
2017-04-22T10:13:54.540Z,32.15
2017-04-22T10:15:04.489Z,32.06
2017-04-22T10:16:15.671Z,32.06
2017-04-22T10:17:25.612Z,31.86
2017-04-22T10:18:35.830Z,31.96
2017-04-22T10:19:45.928Z,31.86
2017-04-22T10:20:55.845Z,31.76
2017-04-22T10:22:05.779Z,31.86
2017-04-22T10:23:15.069Z,31.76
2017-04-22T10:24:24.985Z,31.67
2017-04-22T10:25:35.315Z,31.67
2017-04-22T10:26:45.264Z,31.76
2017-04-22T10:27:54.578Z,31.49
2017-04-22T10:29:04.807Z,31.48
2017-04-22T10:30:15.071Z,31.67
2017-04-22T10:31:25.243Z,31.57
2017-04-22T10:32:35.456Z,31.59
2017-04-22T10:33:45.249Z,31.67
2017-04-22T10:34:55.161Z,31.49
2017-04-22T10:36:05.436Z,31.67
2017-04-22T10:37:15.969Z,31.48
2017-04-22T10:38:25.571Z,31.76
2017-04-22T10:39:35.488Z,31.76
2017-04-22T10:40:45.713Z,31.57
2017-04-22T10:41:55.618Z,31.57
2017-04-22T10:43:06.201Z,31.49
2017-04-22T10:44:15.821Z,31.59
2017-04-22T10:45:25.732Z,31.48
2017-04-22T10:46:35.641Z,31.59
2017-04-22T10:47:45.235Z,31.59
2017-04-22T10:48:55.495Z,31.57
2017-04-22T10:50:04.784Z,31.76
2017-04-22T10:51:14.481Z,31.57
2017-04-22T10:52:24.387Z,31.67
2017-04-22T10:53:33.998Z,31.76
2017-04-22T10:54:44.280Z,31.86
2017-04-22T10:55:53.895Z,31.86
2017-04-22T10:57:04.143Z,31.76
2017-04-22T10:58:14.063Z,31.96
2017-04-22T10:59:24.310Z,31.96
2017-04-22T11:00:34.783Z,32.06
2017-04-22T11:01:44.978Z,32.15
2017-04-22T11:02:55.191Z,32.34
2017-04-22T11:04:05.434Z,32.24
2017-04-22T11:05:15.039Z,32.15
2017-04-22T11:06:25.100Z,32.15
2017-04-22T11:07:35.001Z,32.24
2017-04-22T11:08:44.609Z,32.34
2017-04-22T11:09:54.211Z,32.15
2017-04-22T11:11:03.837Z,32.06
2017-04-22T11:12:14.289Z,31.96
2017-04-22T11:13:23.886Z,32.06
2017-04-22T11:14:33.982Z,32.06
2017-04-22T11:15:44.225Z,31.96
2017-04-22T11:16:54.126Z,31.96
2017-04-22T11:18:03.894Z,31.96
2017-04-22T11:19:13.801Z,32.06
2017-04-22T11:20:23.887Z,32.06
2017-04-22T11:21:34.243Z,31.96
2017-04-22T11:22:44.534Z,32.06
2017-04-22T11:23:55.019Z,31.96
2017-04-22T11:25:04.950Z,32.15
2017-04-22T11:26:14.870Z,32.34
2017-04-22T11:27:24.162Z,32.15
2017-04-22T11:28:34.079Z,32.15
2017-04-22T11:29:44.651Z,32.14
2017-04-22T11:30:54.575Z,32.24
2017-04-22T11:32:04.801Z,32.23
2017-04-22T11:33:14.094Z,32.23
2017-04-22T11:34:24.333Z,32.33
2017-04-22T11:35:34.847Z,32.62
2017-04-22T11:36:45.059Z,32.71
2017-04-22T11:37:54.735Z,32.43
2017-04-22T11:39:04.639Z,32.52
2017-04-22T11:40:14.246Z,32.62
2017-04-22T11:41:24.203Z,32.62
2017-04-22T11:42:34.146Z,32.43
2017-04-22T11:43:44.362Z,32.33
2017-04-22T11:44:54.577Z,32.33
2017-04-22T11:46:04.502Z,32.33
2017-04-22T11:47:14.252Z,32.23
2017-04-22T11:48:24.176Z,32.52
2017-04-22T11:49:34.079Z,32.62
2017-04-22T11:50:43.997Z,32.43
2017-04-22T11:51:53.924Z,32.52
2017-04-22T11:53:04.187Z,32.52
2017-04-22T11:54:14.309Z,32.62
2017-04-22T11:55:24.227Z,32.62
2017-04-22T11:56:33.850Z,32.62
2017-04-22T11:57:44.072Z,32.62
2017-04-22T11:58:54.610Z,32.52
2017-04-22T12:00:04.853Z,32.71
2017-04-22T12:01:15.094Z,32.62
2017-04-22T12:02:25.308Z,32.62
2017-04-22T12:03:34.908Z,32.62
2017-04-22T12:04:45.297Z,32.71
2017-04-22T12:05:55.516Z,32.62
2017-04-22T12:07:05.446Z,32.62
2017-04-22T12:08:14.753Z,32.62
2017-04-22T12:09:24.664Z,32.62
2017-04-22T12:10:35.073Z,32.62
2017-04-22T12:11:45.036Z,32.62
2017-04-22T12:12:55.267Z,32.62
2017-04-22T12:14:05.488Z,32.62
2017-04-22T12:15:15.710Z,32.62
2017-04-22T12:16:26.255Z,32.52
2017-04-22T12:17:36.477Z,32.62
2017-04-22T12:18:46.388Z,32.23
2017-04-22T12:19:56.636Z,32.33
2017-04-22T12:21:05.925Z,32.23
2017-04-22T12:22:16.208Z,32.23
2017-04-22T12:23:26.245Z,32.14
2017-04-22T12:24:36.478Z,32.23
2017-04-22T12:25:46.095Z,32.14
2017-04-22T12:26:56.352Z,32.04
2017-04-22T12:28:06.531Z,32.04
2017-04-22T12:29:15.956Z,31.94
2017-04-22T12:30:26.226Z,32.04
2017-04-22T12:31:35.867Z,32.04
2017-04-22T12:32:45.774Z,32.04
2017-04-22T12:33:56.162Z,31.94
2017-04-22T12:35:05.777Z,31.94
2017-04-22T12:36:15.396Z,32.04
2017-04-22T12:37:25.016Z,31.94
2017-04-22T12:38:34.619Z,31.85
2017-04-22T12:39:44.701Z,31.94
2017-04-22T12:40:54.939Z,32.04
2017-04-22T12:42:04.856Z,31.94
2017-04-22T12:43:15.089Z,31.94
2017-04-22T12:44:25.351Z,31.94
2017-04-22T12:45:35.960Z,31.94
2017-04-22T12:46:45.899Z,31.94
2017-04-22T12:47:55.839Z,31.94
2017-04-22T12:49:06.093Z,32.15
2017-04-22T12:50:16.077Z,32.06
2017-04-22T12:51:25.998Z,32.04
2017-04-22T12:52:36.217Z,32.06
2017-04-22T12:53:46.136Z,32.15
2017-04-22T12:54:56.064Z,32.06
2017-04-22T12:56:06.066Z,32.15
2017-04-22T12:57:15.918Z,31.96
2017-04-22T12:58:25.622Z,31.86
2017-04-22T12:59:35.887Z,31.86
2017-04-22T13:00:45.855Z,31.96
2017-04-22T13:01:55.789Z,31.86
2017-04-22T13:03:05.994Z,31.67
2017-04-22T13:04:16.006Z,31.96
2017-04-22T13:05:26.026Z,31.86
2017-04-22T13:06:35.473Z,31.76
2017-04-22T13:07:45.783Z,31.86
2017-04-22T13:08:56.285Z,31.86
2017-04-22T13:10:05.970Z,31.68
2017-04-22T13:11:15.953Z,31.88
2017-04-22T13:12:26.693Z,31.88
2017-04-22T13:13:36.738Z,31.86
2017-04-22T13:14:47.407Z,31.88
2017-04-22T13:15:57.750Z,31.96
2017-04-22T13:17:07.404Z,31.88
2017-04-22T13:18:17.385Z,31.96
2017-04-22T13:19:27.662Z,32.07
2017-04-22T13:20:37.824Z,32.17
2017-04-22T13:21:48.133Z,32.15
2017-04-22T13:22:58.624Z,32.07
2017-04-22T13:24:09.317Z,32.07
2017-04-22T13:25:19.320Z,32.15
2017-04-22T13:26:29.214Z,32.06
2017-04-22T13:27:40.524Z,32.15
2017-04-22T13:28:50.481Z,32.36
2017-04-22T13:30:00.138Z,32.54
2017-04-22T13:31:10.159Z,32.44
2017-04-22T13:32:19.993Z,32.54
2017-04-22T13:33:30.017Z,32.44
2017-04-22T13:34:39.829Z,32.64
2017-04-22T13:35:49.508Z,32.54
2017-04-22T13:36:59.936Z,32.44
2017-04-22T13:38:10.204Z,32.64
2017-04-22T13:39:19.702Z,32.64
2017-04-22T13:40:30.046Z,32.64
2017-04-22T13:41:40.005Z,32.54
2017-04-22T13:42:49.981Z,32.54
2017-04-22T13:44:01.428Z,32.92
2017-04-22T13:45:11.513Z,32.54
2017-04-22T13:46:21.460Z,32.64
2017-04-22T13:47:31.466Z,32.64
2017-04-22T13:48:40.881Z,32.64
2017-04-22T13:49:51.460Z,32.54
2017-04-22T13:51:01.708Z,32.73
2017-04-22T13:52:11.561Z,32.54
2017-04-22T13:53:21.569Z,32.54
2017-04-22T13:54:31.832Z,32.54
2017-04-22T13:55:41.534Z,32.64
2017-04-22T13:56:51.781Z,33.12
2017-04-22T13:58:01.729Z,32.92
2017-04-22T13:59:11.343Z,33.12
2017-04-22T14:00:21.358Z,32.92
2017-04-22T14:01:31.895Z,32.82
2017-04-22T14:02:41.891Z,32.92
2017-04-22T14:03:51.673Z,32.82
2017-04-22T14:05:01.951Z,32.92
2017-04-22T14:06:12.309Z,32.92
2017-04-22T14:07:22.815Z,32.92
2017-04-22T14:08:32.620Z,32.92
2017-04-22T14:09:42.992Z,32.82
2017-04-22T14:10:52.727Z,32.82
2017-04-22T14:12:02.688Z,32.82
2017-04-22T14:13:12.996Z,32.92
2017-04-22T14:14:23.117Z,33.02
2017-04-22T14:15:33.126Z,32.92
2017-04-22T14:16:43.339Z,32.92
2017-04-22T14:17:53.579Z,33.02
2017-04-22T14:19:03.916Z,33.02
2017-04-22T14:20:14.183Z,33.22
2017-04-22T14:21:23.819Z,33.02
2017-04-22T14:22:33.807Z,33.12
2017-04-22T14:23:43.498Z,33.22
2017-04-22T14:24:53.323Z,33.31
2017-04-22T14:26:03.333Z,33.12
2017-04-22T14:27:12.733Z,33.02
2017-04-22T14:28:22.700Z,33.31
2017-04-22T14:29:32.345Z,33.5
2017-04-22T14:30:42.125Z,33.4
2017-04-22T14:31:52.073Z,33.31
2017-04-22T14:33:02.390Z,33.6
2017-04-22T14:34:12.301Z,33.31
2017-04-22T14:35:22.240Z,33.4
2017-04-22T14:36:32.302Z,33.02
2017-04-22T14:37:42.252Z,33.02
2017-04-22T14:38:52.638Z,33.12
2017-04-22T14:40:02.600Z,33.22
2017-04-22T14:41:12.946Z,33.4
2017-04-22T14:42:23.852Z,33.4
2017-04-22T14:43:33.885Z,33.5
2017-04-22T14:44:43.821Z,33.48
2017-04-22T14:45:53.510Z,33.29
2017-04-22T14:47:03.261Z,33.2
2017-04-22T14:48:13.046Z,33.29
2017-04-22T14:49:23.201Z,33.78
2017-04-22T14:50:33.558Z,33.58
2017-04-22T14:51:44.053Z,33.48
2017-04-22T14:52:54.043Z,33.39
2017-04-22T14:54:04.393Z,33.68
2017-04-22T14:55:14.373Z,33.48
2017-04-22T14:56:24.760Z,33.58
2017-04-22T14:57:34.712Z,33.78
2017-04-22T14:58:44.716Z,33.68
2017-04-22T14:59:55.427Z,33.68
2017-04-22T15:01:04.987Z,33.58
2017-04-22T15:02:15.217Z,33.68
2017-04-22T15:03:25.401Z,33.78
2017-04-22T15:04:36.185Z,33.78
2017-04-22T15:05:47.475Z,33.58